sensor_id;sensor_type;location;lat;lon;timestamp;pressure;altitude;pressure_sealevel;temperature;humidity
70370;BME280;57790;51.356;-2.906;2023-06-10T00:01:02;101351.75;;;22.22;100.00
70370;BME280;57790;51.356;-2.906;2023-06-10T00:04:03;101350.94;;;22.22;100.00
70370;BME280;57790;51.356;-2.906;2023-06-10T00:07:04;101351.00;;;22.15;100.00
70370;BME280;57790;51.356;-2.906;2023-06-10T00:10:08;101340.84;;;22.11;100.00
70370;BME280;57790;51.356;-2.906;2023-06-10T00:13:10;101343.25;;;22.01;100.00
70370;BME280;57790;51.356;-2.906;2023-06-10T00:16:14;101353.25;;;21.93;100.00
70370;BME280;57790;51.356;-2.906;2023-06-10T00:19:14;101345.28;;;21.80;100.00
70370;BME280;57790;51.356;-2.906;2023-06-10T00:22:15;101348.66;;;21.76;100.00
70370;BME280;57790;51.356;-2.906;2023-06-10T00:25:16;101343.47;;;21.74;100.00
70370;BME280;57790;51.356;-2.906;2023-06-10T00:28:17;101326.50;;;21.67;100.00
70370;BME280;57790;51.356;-2.906;2023-06-10T00:31:17;101336.69;;;21.65;100.00
70370;BME280;57790;51.356;-2.906;2023-06-10T00:34:18;101329.72;;;21.57;100.00
70370;BME280;57790;51.356;-2.906;2023-06-10T00:37:18;101337.84;;;21.51;100.00
70370;BME280;57790;51.356;-2.906;2023-06-10T00:40:19;101330.47;;;21.39;100.00
70370;BME280;57790;51.356;-2.906;2023-06-10T00:43:19;101338.47;;;21.21;100.00
70370;BME280;57790;51.356;-2.906;2023-06-10T00:46:21;101338.66;;;21.26;100.00
70370;BME280;57790;51.356;-2.906;2023-06-10T00:49:21;101332.69;;;21.18;100.00
70370;BME280;57790;51.356;-2.906;2023-06-10T00:52:22;101333.53;;;21.12;100.00
70370;BME280;57790;51.356;-2.906;2023-06-10T00:55:27;101334.66;;;20.97;100.00
70370;BME280;57790;51.356;-2.906;2023-06-10T00:58:27;101336.69;;;21.08;100.00
70370;BME280;57790;51.356;-2.906;2023-06-10T01:01:28;101340.25;;;21.02;100.00
70370;BME280;57790;51.356;-2.906;2023-06-10T01:04:38;101332.00;;;20.91;100.00
70370;BME280;57790;51.356;-2.906;2023-06-10T01:11:04;101321.91;;;20.79;100.00
70370;BME280;57790;51.356;-2.906;2023-06-10T01:14:08;101330.88;;;20.67;100.00
70370;BME280;57790;51.356;-2.906;2023-06-10T01:17:09;101334.59;;;20.72;100.00
70370;BME280;57790;51.356;-2.906;2023-06-10T01:20:10;101335.03;;;20.69;100.00
70370;BME280;57790;51.356;-2.906;2023-06-10T01:23:12;101333.34;;;20.68;100.00
70370;BME280;57790;51.356;-2.906;2023-06-10T01:26:13;101331.31;;;20.64;100.00
70370;BME280;57790;51.356;-2.906;2023-06-10T01:29:25;101335.50;;;20.60;100.00
70370;BME280;57790;51.356;-2.906;2023-06-10T01:32:40;101340.28;;;20.58;100.00
70370;BME280;57790;51.356;-2.906;2023-06-10T01:35:43;101327.63;;;20.52;100.00
70370;BME280;57790;51.356;-2.906;2023-06-10T01:38:45;101326.03;;;20.44;100.00
70370;BME280;57790;51.356;-2.906;2023-06-10T01:41:47;101321.91;;;20.41;100.00
70370;BME280;57790;51.356;-2.906;2023-06-10T01:44:48;101334.50;;;20.41;100.00
70370;BME280;57790;51.356;-2.906;2023-06-10T01:47:49;101320.63;;;20.37;100.00
70370;BME280;57790;51.356;-2.906;2023-06-10T01:50:49;101326.69;;;20.26;100.00
70370;BME280;57790;51.356;-2.906;2023-06-10T01:53:50;101329.56;;;20.25;100.00
70370;BME280;57790;51.356;-2.906;2023-06-10T01:56:51;101325.25;;;20.17;100.00
70370;BME280;57790;51.356;-2.906;2023-06-10T01:59:51;101317.38;;;20.15;100.00
70370;BME280;57790;51.356;-2.906;2023-06-10T02:02:52;101313.25;;;20.06;100.00
70370;BME280;57790;51.356;-2.906;2023-06-10T02:05:52;101318.25;;;20.03;100.00
70370;BME280;57790;51.356;-2.906;2023-06-10T02:08:53;101333.16;;;19.99;100.00
70370;BME280;57790;51.356;-2.906;2023-06-10T02:11:53;101339.38;;;19.92;100.00
70370;BME280;57790;51.356;-2.906;2023-06-10T02:14:53;101334.63;;;19.88;100.00
70370;BME280;57790;51.356;-2.906;2023-06-10T02:17:54;101339.78;;;19.89;100.00
70370;BME280;57790;51.356;-2.906;2023-06-10T02:20:54;101339.81;;;19.83;100.00
70370;BME280;57790;51.356;-2.906;2023-06-10T02:23:55;101342.69;;;19.81;100.00
70370;BME280;57790;51.356;-2.906;2023-06-10T02:26:55;101340.63;;;19.83;100.00
70370;BME280;57790;51.356;-2.906;2023-06-10T02:29:57;101328.03;;;19.71;100.00
70370;BME280;57790;51.356;-2.906;2023-06-10T02:32:58;101322.41;;;19.66;100.00
70370;BME280;57790;51.356;-2.906;2023-06-10T02:35:59;101327.19;;;19.64;100.00
70370;BME280;57790;51.356;-2.906;2023-06-10T02:38:59;101324.09;;;19.60;100.00
70370;BME280;57790;51.356;-2.906;2023-06-10T02:42:00;101335.22;;;19.50;100.00
70370;BME280;57790;51.356;-2.906;2023-06-10T02:45:00;101336.47;;;19.41;100.00
70370;BME280;57790;51.356;-2.906;2023-06-10T02:48:01;101345.56;;;19.47;100.00
70370;BME280;57790;51.356;-2.906;2023-06-10T02:51:01;101343.47;;;19.36;100.00
70370;BME280;57790;51.356;-2.906;2023-06-10T02:54:01;101331.69;;;19.37;100.00
70370;BME280;57790;51.356;-2.906;2023-06-10T02:57:02;101333.16;;;19.26;100.00
70370;BME280;57790;51.356;-2.906;2023-06-10T03:00:03;101331.50;;;19.25;100.00
70370;BME280;57790;51.356;-2.906;2023-06-10T03:03:09;101336.88;;;19.25;100.00
70370;BME280;57790;51.356;-2.906;2023-06-10T03:06:10;101345.94;;;19.24;100.00
70370;BME280;57790;51.356;-2.906;2023-06-10T03:09:11;101343.47;;;19.16;100.00
70370;BME280;57790;51.356;-2.906;2023-06-10T03:12:11;101340.78;;;19.16;100.00
70370;BME280;57790;51.356;-2.906;2023-06-10T03:15:12;101340.97;;;19.14;100.00
70370;BME280;57790;51.356;-2.906;2023-06-10T03:18:12;101349.66;;;19.16;100.00
70370;BME280;57790;51.356;-2.906;2023-06-10T03:21:12;101336.59;;;19.07;100.00
70370;BME280;57790;51.356;-2.906;2023-06-10T03:24:13;101336.81;;;19.05;100.00
70370;BME280;57790;51.356;-2.906;2023-06-10T03:27:13;101339.09;;;19.01;100.00
70370;BME280;57790;51.356;-2.906;2023-06-10T03:30:14;101335.75;;;18.93;100.00
70370;BME280;57790;51.356;-2.906;2023-06-10T03:33:15;101334.34;;;18.97;100.00
70370;BME280;57790;51.356;-2.906;2023-06-10T03:36:15;101343.81;;;18.93;100.00
70370;BME280;57790;51.356;-2.906;2023-06-10T03:39:16;101339.25;;;18.93;100.00
70370;BME280;57790;51.356;-2.906;2023-06-10T03:42:16;101347.72;;;18.90;100.00
70370;BME280;57790;51.356;-2.906;2023-06-10T03:45:17;101346.06;;;18.89;100.00
70370;BME280;57790;51.356;-2.906;2023-06-10T03:48:17;101341.53;;;18.90;100.00
70370;BME280;57790;51.356;-2.906;2023-06-10T03:51:18;101348.34;;;18.86;100.00
70370;BME280;57790;51.356;-2.906;2023-06-10T03:54:18;101342.34;;;18.84;100.00
70370;BME280;57790;51.356;-2.906;2023-06-10T03:57:18;101342.13;;;18.79;100.00
70370;BME280;57790;51.356;-2.906;2023-06-10T04:00:19;101342.75;;;18.81;100.00
70370;BME280;57790;51.356;-2.906;2023-06-10T04:03:21;101342.09;;;18.72;100.00
70370;BME280;57790;51.356;-2.906;2023-06-10T04:06:23;101330.53;;;18.71;100.00
70370;BME280;57790;51.356;-2.906;2023-06-10T04:09:25;101329.69;;;18.71;100.00
70370;BME280;57790;51.356;-2.906;2023-06-10T04:12:26;101329.06;;;18.69;100.00
70370;BME280;57790;51.356;-2.906;2023-06-10T04:15:26;101327.22;;;18.69;100.00
70370;BME280;57790;51.356;-2.906;2023-06-10T04:18:26;101331.16;;;18.73;100.00
70370;BME280;57790;51.356;-2.906;2023-06-10T04:21:27;101331.56;;;18.70;100.00
70370;BME280;57790;51.356;-2.906;2023-06-10T04:24:28;101335.06;;;18.71;100.00
70370;BME280;57790;51.356;-2.906;2023-06-10T04:27:29;101340.03;;;18.67;100.00
70370;BME280;57790;51.356;-2.906;2023-06-10T04:30:30;101340.78;;;18.61;100.00
70370;BME280;57790;51.356;-2.906;2023-06-10T04:33:31;101344.28;;;18.62;100.00
70370;BME280;57790;51.356;-2.906;2023-06-10T04:36:31;101333.75;;;18.60;100.00
70370;BME280;57790;51.356;-2.906;2023-06-10T04:39:32;101343.91;;;18.65;100.00
70370;BME280;57790;51.356;-2.906;2023-06-10T04:42:32;101346.59;;;18.65;100.00
70370;BME280;57790;51.356;-2.906;2023-06-10T04:45:33;101354.88;;;18.63;100.00
70370;BME280;57790;51.356;-2.906;2023-06-10T04:48:33;101356.56;;;18.71;100.00
70370;BME280;57790;51.356;-2.906;2023-06-10T04:51:35;101360.69;;;18.73;100.00
70370;BME280;57790;51.356;-2.906;2023-06-10T04:54:36;101355.13;;;18.75;100.00
70370;BME280;57790;51.356;-2.906;2023-06-10T04:57:36;101356.34;;;18.72;100.00
70370;BME280;57790;51.356;-2.906;2023-06-10T05:00:36;101363.38;;;18.73;100.00
70370;BME280;57790;51.356;-2.906;2023-06-10T05:03:37;101366.69;;;18.76;100.00
70370;BME280;57790;51.356;-2.906;2023-06-10T05:06:37;101356.78;;;18.76;100.00
70370;BME280;57790;51.356;-2.906;2023-06-10T05:09:37;101368.34;;;18.77;100.00
70370;BME280;57790;51.356;-2.906;2023-06-10T05:12:38;101377.03;;;18.79;100.00
70370;BME280;57790;51.356;-2.906;2023-06-10T05:15:39;101372.28;;;18.74;100.00
70370;BME280;57790;51.356;-2.906;2023-06-10T05:18:40;101377.66;;;18.74;100.00
70370;BME280;57790;51.356;-2.906;2023-06-10T05:21:41;101372.31;;;18.81;100.00
70370;BME280;57790;51.356;-2.906;2023-06-10T05:24:41;101376.22;;;18.78;100.00
70370;BME280;57790;51.356;-2.906;2023-06-10T05:27:43;101374.97;;;18.74;100.00
70370;BME280;57790;51.356;-2.906;2023-06-10T05:30:43;101379.28;;;18.68;100.00
70370;BME280;57790;51.356;-2.906;2023-06-10T05:33:43;101373.28;;;18.66;100.00
70370;BME280;57790;51.356;-2.906;2023-06-10T05:36:44;101389.41;;;18.66;100.00
70370;BME280;57790;51.356;-2.906;2023-06-10T05:39:44;101369.16;;;18.70;100.00
70370;BME280;57790;51.356;-2.906;2023-06-10T05:42:45;101360.69;;;18.67;100.00
70370;BME280;57790;51.356;-2.906;2023-06-10T05:45:45;101362.91;;;18.63;100.00
70370;BME280;57790;51.356;-2.906;2023-06-10T05:48:46;101379.28;;;18.68;100.00
70370;BME280;57790;51.356;-2.906;2023-06-10T05:51:46;101368.91;;;18.65;100.00
70370;BME280;57790;51.356;-2.906;2023-06-10T05:54:46;101364.75;;;18.63;100.00
70370;BME280;57790;51.356;-2.906;2023-06-10T05:57:47;101364.34;;;18.59;100.00
70370;BME280;57790;51.356;-2.906;2023-06-10T06:00:47;101367.63;;;18.61;100.00
70370;BME280;57790;51.356;-2.906;2023-06-10T06:03:48;101363.91;;;18.62;100.00
70370;BME280;57790;51.356;-2.906;2023-06-10T06:06:48;101371.59;;;18.65;100.00
70370;BME280;57790;51.356;-2.906;2023-06-10T06:09:48;101361.88;;;18.64;100.00
70370;BME280;57790;51.356;-2.906;2023-06-10T06:12:49;101354.88;;;18.63;100.00
70370;BME280;57790;51.356;-2.906;2023-06-10T06:15:50;101356.69;;;18.63;100.00
70370;BME280;57790;51.356;-2.906;2023-06-10T06:18:50;101366.69;;;18.69;100.00
70370;BME280;57790;51.356;-2.906;2023-06-10T06:21:50;101365.44;;;18.71;100.00
70370;BME280;57790;51.356;-2.906;2023-06-10T06:24:51;101374.34;;;18.79;100.00
70370;BME280;57790;51.356;-2.906;2023-06-10T06:27:51;101374.16;;;18.80;100.00
70370;BME280;57790;51.356;-2.906;2023-06-10T06:30:51;101372.31;;;18.81;100.00
70370;BME280;57790;51.356;-2.906;2023-06-10T06:33:52;101372.91;;;18.76;100.00
70370;BME280;57790;51.356;-2.906;2023-06-10T06:36:52;101367.78;;;18.81;100.00
70370;BME280;57790;51.356;-2.906;2023-06-10T06:39:53;101375.78;;;18.75;100.00
70370;BME280;57790;51.356;-2.906;2023-06-10T06:42:54;101386.53;;;18.75;100.00
70370;BME280;57790;51.356;-2.906;2023-06-10T06:45:55;101375.78;;;18.75;100.00
70370;BME280;57790;51.356;-2.906;2023-06-10T06:48:55;101376.63;;;18.75;100.00
70370;BME280;57790;51.356;-2.906;2023-06-10T06:51:56;101368.34;;;18.77;100.00
70370;BME280;57790;51.356;-2.906;2023-06-10T06:54:56;101375.00;;;18.81;100.00
70370;BME280;57790;51.356;-2.906;2023-06-10T06:57:56;101369.63;;;18.87;100.00
70370;BME280;57790;51.356;-2.906;2023-06-10T07:00:57;101371.91;;;18.90;100.00
70370;BME280;57790;51.356;-2.906;2023-06-10T07:03:57;101380.44;;;19.00;100.00
70370;BME280;57790;51.356;-2.906;2023-06-10T07:06:57;101371.78;;;19.12;100.00
70370;BME280;57790;51.356;-2.906;2023-06-10T07:09:58;101377.38;;;19.10;100.00
70370;BME280;57790;51.356;-2.906;2023-06-10T07:12:58;101368.69;;;19.15;100.00
70370;BME280;57790;51.356;-2.906;2023-06-10T07:15:59;101373.03;;;19.22;100.00
70370;BME280;57790;51.356;-2.906;2023-06-10T07:18:59;101379.69;;;19.33;100.00
70370;BME280;57790;51.356;-2.906;2023-06-10T07:21:59;101383.22;;;19.47;100.00
70370;BME280;57790;51.356;-2.906;2023-06-10T07:25:00;101374.16;;;19.54;100.00
70370;BME280;57790;51.356;-2.906;2023-06-10T07:28:00;101372.28;;;19.61;100.00
70370;BME280;57790;51.356;-2.906;2023-06-10T07:31:01;101369.63;;;19.68;100.00
70370;BME280;57790;51.356;-2.906;2023-06-10T07:34:02;101377.88;;;19.67;100.00
70370;BME280;57790;51.356;-2.906;2023-06-10T07:37:02;101377.69;;;19.75;100.00
70370;BME280;57790;51.356;-2.906;2023-06-10T07:40:03;101384.09;;;19.80;100.00
70370;BME280;57790;51.356;-2.906;2023-06-10T07:43:03;101389.69;;;19.85;100.00
70370;BME280;57790;51.356;-2.906;2023-06-10T07:46:04;101380.38;;;19.88;100.00
70370;BME280;57790;51.356;-2.906;2023-06-10T07:49:05;101387.81;;;19.92;100.00
70370;BME280;57790;51.356;-2.906;2023-06-10T07:52:06;101386.56;;;19.95;100.00
70370;BME280;57790;51.356;-2.906;2023-06-10T07:55:07;101388.22;;;20.03;100.00
70370;BME280;57790;51.356;-2.906;2023-06-10T07:58:07;101386.97;;;20.05;100.00
70370;BME280;57790;51.356;-2.906;2023-06-10T08:01:07;101378.25;;;20.10;100.00
70370;BME280;57790;51.356;-2.906;2023-06-10T08:04:09;101389.25;;;20.15;100.00
70370;BME280;57790;51.356;-2.906;2023-06-10T08:07:09;101383.63;;;20.23;100.00
70370;BME280;57790;51.356;-2.906;2023-06-10T08:10:10;101378.25;;;20.23;100.00
70370;BME280;57790;51.356;-2.906;2023-06-10T08:13:11;101376.59;;;20.22;100.00
70370;BME280;57790;51.356;-2.906;2023-06-10T08:16:11;101378.84;;;20.25;100.00
70370;BME280;57790;51.356;-2.906;2023-06-10T08:19:11;101373.06;;;20.28;100.00
70370;BME280;57790;51.356;-2.906;2023-06-10T08:22:12;101372.03;;;20.29;100.00
70370;BME280;57790;51.356;-2.906;2023-06-10T08:25:12;101367.47;;;20.30;100.00
70370;BME280;57790;51.356;-2.906;2023-06-10T08:28:12;101373.88;;;20.35;100.00
70370;BME280;57790;51.356;-2.906;2023-06-10T08:31:13;101378.00;;;20.38;100.00
70370;BME280;57790;51.356;-2.906;2023-06-10T08:34:13;101375.34;;;20.44;100.00
70370;BME280;57790;51.356;-2.906;2023-06-10T08:37:14;101375.72;;;20.48;100.00
70370;BME280;57790;51.356;-2.906;2023-06-10T08:40:14;101366.41;;;20.50;100.00
70370;BME280;57790;51.356;-2.906;2023-06-10T08:43:33;101371.16;;;20.55;100.00
70370;BME280;57790;51.356;-2.906;2023-06-10T08:46:37;101363.25;;;20.60;100.00
70370;BME280;57790;51.356;-2.906;2023-06-10T08:49:38;101365.31;;;20.65;100.00
70370;BME280;57790;51.356;-2.906;2023-06-10T08:52:43;101373.16;;;20.66;100.00
70370;BME280;57790;51.356;-2.906;2023-06-10T08:55:47;101378.97;;;20.70;100.00
70370;BME280;57790;51.356;-2.906;2023-06-10T08:58:49;101373.34;;;20.78;100.00
70370;BME280;57790;51.356;-2.906;2023-06-10T09:01:49;101374.56;;;20.82;100.00
70370;BME280;57790;51.356;-2.906;2023-06-10T09:04:51;101370.81;;;20.90;100.00
70370;BME280;57790;51.356;-2.906;2023-06-10T09:07:52;101372.00;;;20.94;100.00
70370;BME280;57790;51.356;-2.906;2023-06-10T09:10:53;101362.03;;;21.01;100.00
70370;BME280;57790;51.356;-2.906;2023-06-10T09:13:53;101358.69;;;21.05;100.00
70370;BME280;57790;51.356;-2.906;2023-06-10T09:16:53;101354.94;;;21.06;100.00
70370;BME280;57790;51.356;-2.906;2023-06-10T09:19:57;101350.56;;;21.12;100.00
70370;BME280;57790;51.356;-2.906;2023-06-10T09:22:59;101358.00;;;21.17;100.00
70370;BME280;57790;51.356;-2.906;2023-06-10T09:26:00;101369.56;;;21.24;100.00
70370;BME280;57790;51.356;-2.906;2023-06-10T09:29:07;101361.84;;;21.34;100.00
70370;BME280;57790;51.356;-2.906;2023-06-10T09:32:12;101355.38;;;21.42;100.00
70370;BME280;57790;51.356;-2.906;2023-06-10T09:35:12;101365.50;;;21.46;100.00
70370;BME280;57790;51.356;-2.906;2023-06-10T09:38:15;101370.84;;;21.53;100.00
70370;BME280;57790;51.356;-2.906;2023-06-10T09:41:19;101378.00;;;21.65;100.00
70370;BME280;57790;51.356;-2.906;2023-06-10T09:44:21;101369.06;;;21.72;100.00
70370;BME280;57790;51.356;-2.906;2023-06-10T09:47:22;101375.66;;;21.76;100.00
70370;BME280;57790;51.356;-2.906;2023-06-10T09:50:23;101369.13;;;21.83;100.00
70370;BME280;57790;51.356;-2.906;2023-06-10T09:53:23;101373.88;;;21.88;100.00
70370;BME280;57790;51.356;-2.906;2023-06-10T09:56:34;101375.25;;;21.97;100.00
70370;BME280;57790;51.356;-2.906;2023-06-10T09:59:37;101379.34;;;22.06;100.00
70370;BME280;57790;51.356;-2.906;2023-06-10T10:02:51;101365.50;;;22.21;100.00
70370;BME280;57790;51.356;-2.906;2023-06-10T10:05:58;101371.44;;;22.30;100.00
70370;BME280;57790;51.356;-2.906;2023-06-10T10:08:59;101369.25;;;22.38;100.00
70370;BME280;57790;51.356;-2.906;2023-06-10T10:12:01;101366.47;;;22.45;100.00
70370;BME280;57790;51.356;-2.906;2023-06-10T10:15:03;101363.00;;;22.56;100.00
70370;BME280;57790;51.356;-2.906;2023-06-10T10:18:09;101350.38;;;22.68;100.00
70370;BME280;57790;51.356;-2.906;2023-06-10T10:21:12;101332.66;;;22.72;100.00
70370;BME280;57790;51.356;-2.906;2023-06-10T10:24:18;101352.09;;;22.81;100.00
70370;BME280;57790;51.356;-2.906;2023-06-10T10:27:27;101354.28;;;22.91;100.00
70370;BME280;57790;51.356;-2.906;2023-06-10T10:30:30;101354.66;;;22.94;100.00
70370;BME280;57790;51.356;-2.906;2023-06-10T10:33:45;101355.41;;;23.01;100.00
70370;BME280;57790;51.356;-2.906;2023-06-10T10:36:49;101360.69;;;23.08;100.00
70370;BME280;57790;51.356;-2.906;2023-06-10T10:39:50;101368.94;;;23.13;100.00
70370;BME280;57790;51.356;-2.906;2023-06-10T10:42:51;101359.34;;;23.17;100.00
70370;BME280;57790;51.356;-2.906;2023-06-10T10:45:59;101370.88;;;23.24;100.00
70370;BME280;57790;51.356;-2.906;2023-06-10T10:49:01;101371.59;;;23.31;100.00
70370;BME280;57790;51.356;-2.906;2023-06-10T10:52:02;101359.25;;;23.35;100.00
70370;BME280;57790;51.356;-2.906;2023-06-10T10:55:12;101366.00;;;23.44;100.00
70370;BME280;57790;51.356;-2.906;2023-06-10T10:58:13;101365.06;;;23.51;100.00
70370;BME280;57790;51.356;-2.906;2023-06-10T11:01:15;101364.56;;;23.54;100.00
70370;BME280;57790;51.356;-2.906;2023-06-10T11:04:17;101362.41;;;23.62;100.00
70370;BME280;57790;51.356;-2.906;2023-06-10T11:07:21;101364.75;;;23.70;100.00
70370;BME280;57790;51.356;-2.906;2023-06-10T11:10:37;101351.69;;;23.79;100.00
70370;BME280;57790;51.356;-2.906;2023-06-10T11:13:38;101359.25;;;23.89;100.00
70370;BME280;57790;51.356;-2.906;2023-06-10T11:16:40;101363.81;;;24.00;100.00
70370;BME280;57790;51.356;-2.906;2023-06-10T11:19:44;101351.44;;;24.16;100.00
70370;BME280;57790;51.356;-2.906;2023-06-10T11:22:59;101351.19;;;24.29;100.00
70370;BME280;57790;51.356;-2.906;2023-06-10T11:26:29;101350.38;;;24.40;100.00
70370;BME280;57790;51.356;-2.906;2023-06-10T11:29:34;101347.63;;;24.52;100.00
70370;BME280;57790;51.356;-2.906;2023-06-10T11:32:34;101350.06;;;24.65;100.00
70370;BME280;57790;51.356;-2.906;2023-06-10T11:35:35;101354.63;;;24.76;100.00
70370;BME280;57790;51.356;-2.906;2023-06-10T11:38:36;101356.13;;;24.84;100.00
70370;BME280;57790;51.356;-2.906;2023-06-10T11:41:37;101357.50;;;24.98;100.00
70370;BME280;57790;51.356;-2.906;2023-06-10T11:44:39;101355.00;;;25.08;100.00
70370;BME280;57790;51.356;-2.906;2023-06-10T11:47:59;101360.75;;;25.12;100.00
70370;BME280;57790;51.356;-2.906;2023-06-10T11:51:00;101355.03;;;25.25;100.00
70370;BME280;57790;51.356;-2.906;2023-06-10T11:54:01;101354.47;;;25.40;100.00
70370;BME280;57790;51.356;-2.906;2023-06-10T11:57:02;101353.56;;;25.51;100.00
70370;BME280;57790;51.356;-2.906;2023-06-10T12:00:06;101352.94;;;25.61;100.00
70370;BME280;57790;51.356;-2.906;2023-06-10T12:03:08;101356.06;;;25.69;100.00
70370;BME280;57790;51.356;-2.906;2023-06-10T12:06:08;101355.91;;;25.76;100.00
70370;BME280;57790;51.356;-2.906;2023-06-10T12:09:29;101358.44;;;25.83;100.00
70370;BME280;57790;51.356;-2.906;2023-06-10T12:12:29;101365.13;;;25.92;100.00
70370;BME280;57790;51.356;-2.906;2023-06-10T12:15:30;101364.09;;;25.98;100.00
70370;BME280;57790;51.356;-2.906;2023-06-10T12:18:32;101360.72;;;26.07;100.00
70370;BME280;57790;51.356;-2.906;2023-06-10T12:21:36;101353.75;;;26.17;100.00
70370;BME280;57790;51.356;-2.906;2023-06-10T12:25:03;101351.69;;;26.24;100.00
70370;BME280;57790;51.356;-2.906;2023-06-10T12:28:05;101347.00;;;26.36;100.00
70370;BME280;57790;51.356;-2.906;2023-06-10T12:31:07;101353.81;;;26.38;100.00
70370;BME280;57790;51.356;-2.906;2023-06-10T12:34:10;101356.03;;;26.42;100.00
70370;BME280;57790;51.356;-2.906;2023-06-10T12:37:12;101356.44;;;26.50;100.00
70370;BME280;57790;51.356;-2.906;2023-06-10T12:40:13;101359.25;;;26.60;100.00
70370;BME280;57790;51.356;-2.906;2023-06-10T12:43:27;101363.44;;;26.68;100.00
70370;BME280;57790;51.356;-2.906;2023-06-10T12:46:36;101371.38;;;26.75;100.00
70370;BME280;57790;51.356;-2.906;2023-06-10T12:49:36;101366.31;;;26.83;100.00
70370;BME280;57790;51.356;-2.906;2023-06-10T12:52:37;101372.38;;;26.90;100.00
70370;BME280;57790;51.356;-2.906;2023-06-10T12:55:38;101363.47;;;26.95;100.00
70370;BME280;57790;51.356;-2.906;2023-06-10T12:58:38;101358.31;;;26.98;100.00
70370;BME280;57790;51.356;-2.906;2023-06-10T13:01:38;101358.13;;;27.05;100.00
70370;BME280;57790;51.356;-2.906;2023-06-10T13:04:39;101354.09;;;27.08;100.00
70370;BME280;57790;51.356;-2.906;2023-06-10T13:07:40;101348.69;;;27.13;100.00
70370;BME280;57790;51.356;-2.906;2023-06-10T13:10:41;101359.59;;;27.13;100.00
70370;BME280;57790;51.356;-2.906;2023-06-10T13:13:42;101361.25;;;27.19;100.00
70370;BME280;57790;51.356;-2.906;2023-06-10T13:16:43;101358.81;;;27.17;100.00
70370;BME280;57790;51.356;-2.906;2023-06-10T13:19:44;101354.13;;;27.13;100.00
70370;BME280;57790;51.356;-2.906;2023-06-10T13:22:45;101357.16;;;27.16;100.00
70370;BME280;57790;51.356;-2.906;2023-06-10T13:25:45;101348.44;;;27.14;100.00
70370;BME280;57790;51.356;-2.906;2023-06-10T13:28:46;101354.97;;;27.13;100.00
70370;BME280;57790;51.356;-2.906;2023-06-10T13:31:47;101359.59;;;27.13;100.00
70370;BME280;57790;51.356;-2.906;2023-06-10T13:34:47;101348.44;;;27.14;100.00
70370;BME280;57790;51.356;-2.906;2023-06-10T13:37:49;101357.38;;;27.10;100.00
70370;BME280;57790;51.356;-2.906;2023-06-10T13:40:50;101358.72;;;27.07;100.00
70370;BME280;57790;51.356;-2.906;2023-06-10T13:43:51;101361.44;;;27.07;100.00
70370;BME280;57790;51.356;-2.906;2023-06-10T13:46:51;101358.13;;;27.05;100.00
70370;BME280;57790;51.356;-2.906;2023-06-10T13:49:51;101363.59;;;27.05;100.00
70370;BME280;57790;51.356;-2.906;2023-06-10T13:52:52;101359.22;;;27.04;100.00
70370;BME280;57790;51.356;-2.906;2023-06-10T13:55:52;101363.28;;;27.02;100.00
70370;BME280;57790;51.356;-2.906;2023-06-10T13:58:53;101368.94;;;27.00;100.00
70370;BME280;57790;51.356;-2.906;2023-06-10T14:01:53;101368.09;;;26.94;100.00
70370;BME280;57790;51.356;-2.906;2023-06-10T14:04:53;101360.66;;;26.90;100.00
70370;BME280;57790;51.356;-2.906;2023-06-10T14:07:54;101358.47;;;26.87;100.00
70370;BME280;57790;51.356;-2.906;2023-06-10T14:10:54;101360.06;;;26.83;100.00
70370;BME280;57790;51.356;-2.906;2023-06-10T14:13:55;101352.69;;;26.78;100.00
70370;BME280;57790;51.356;-2.906;2023-06-10T14:16:59;101364.63;;;26.77;100.00
70370;BME280;57790;51.356;-2.906;2023-06-10T14:19:59;101360.75;;;26.73;100.00
70370;BME280;57790;51.356;-2.906;2023-06-10T14:23:02;101357.22;;;26.73;100.00
70370;BME280;57790;51.356;-2.906;2023-06-10T14:26:02;101348.22;;;26.72;100.00
70370;BME280;57790;51.356;-2.906;2023-06-10T14:29:03;101351.72;;;26.67;100.00
70370;BME280;57790;51.356;-2.906;2023-06-10T14:32:03;101355.53;;;26.66;100.00
70370;BME280;57790;51.356;-2.906;2023-06-10T14:35:04;101353.06;;;26.65;100.00
70370;BME280;57790;51.356;-2.906;2023-06-10T14:38:05;101349.78;;;26.63;100.00
70370;BME280;57790;51.356;-2.906;2023-06-10T14:41:05;101354.63;;;26.61;100.00
70370;BME280;57790;51.356;-2.906;2023-06-10T14:44:05;101344.81;;;26.60;100.00
70370;BME280;57790;51.356;-2.906;2023-06-10T14:47:06;101347.81;;;26.58;100.00
70370;BME280;57790;51.356;-2.906;2023-06-10T14:50:06;101347.81;;;26.58;100.00
70370;BME280;57790;51.356;-2.906;2023-06-10T14:53:07;101349.69;;;26.58;100.00
70370;BME280;57790;51.356;-2.906;2023-06-10T14:56:07;101351.84;;;26.56;100.00
70370;BME280;57790;51.356;-2.906;2023-06-10T14:59:08;101351.03;;;26.55;100.00
70370;BME280;57790;51.356;-2.906;2023-06-10T15:02:08;101350.22;;;26.55;100.00
70370;BME280;57790;51.356;-2.906;2023-06-10T15:05:09;101344.22;;;26.53;100.00
70370;BME280;57790;51.356;-2.906;2023-06-10T15:08:09;101350.72;;;26.52;100.00
70370;BME280;57790;51.356;-2.906;2023-06-10T15:11:10;101336.56;;;26.50;100.00
70370;BME280;57790;51.356;-2.906;2023-06-10T15:14:11;101333.84;;;26.50;100.00
70370;BME280;57790;51.356;-2.906;2023-06-10T15:17:11;101328.66;;;26.48;100.00
70370;BME280;57790;51.356;-2.906;2023-06-10T15:20:11;101327.25;;;26.46;100.00
70370;BME280;57790;51.356;-2.906;2023-06-10T15:23:12;101325.59;;;26.45;100.00
70370;BME280;57790;51.356;-2.906;2023-06-10T15:26:12;101318.53;;;26.44;100.00
70370;BME280;57790;51.356;-2.906;2023-06-10T15:29:13;101321.50;;;26.42;100.00